Time;durP1;ratioP1;P1;durP2;ratioP2;P2;SDS_P1;SDS_P2;PMS_P1;PMS_P2;Temp;Humidity;BMP_temperature;BMP_pressure;BME280_temperature;BME280_humidity;BME280_pressure;Samples;Min_cycle;Max_cycle;Signal;HPM_P1;HPM_P2
2021/12/08 00:01:48;;;;;;;3.85;1.73;;;;;;;-1.77;69.00;100030.03;5084454;28;20021;-69
2021/12/08 00:04:14;;;;;;;2.83;2.00;;;;;;;-1.84;68.98;100033.19;5084324;28;20292;-70
2021/12/08 00:06:39;;;;;;;3.58;1.63;;;;;;;-2.02;69.55;100031.69;5084439;28;20034;-70
2021/12/08 00:14:47;;;;;;;2.20;1.67;;;;;;;-1.98;69.37;100003.81;5084389;28;20048;-69
2021/12/08 00:17:12;;;;;;;5.47;2.35;;;;;;;-1.83;68.50;100016.22;5084352;28;20028;-69
2021/12/08 00:19:37;;;;;;;2.10;1.90;;;;;;;-2.10;69.36;100000.03;5084076;28;20020;-69
2021/12/08 00:22:03;;;;;;;3.25;2.03;;;;;;;-2.20;69.73;100014.06;5084219;28;20020;-69
2021/12/08 00:24:28;;;;;;;5.47;1.65;;;;;;;-2.04;69.38;100010.41;5084211;28;20023;-69
2021/12/08 00:26:56;;;;;;;4.88;1.83;;;;;;;-2.15;69.80;100011.69;5081719;28;20107;-69
2021/12/08 00:29:22;;;;;;;3.42;2.15;;;;;;;-1.94;68.94;100004.00;5084085;28;20025;-70
2021/12/08 00:31:47;;;;;;;3.03;2.15;;;;;;;-1.83;68.13;100012.00;5084014;28;20025;-69
2021/12/08 00:34:14;;;;;;;5.82;2.20;;;;;;;-1.87;68.13;100012.72;5084069;28;20028;-69
2021/12/08 00:36:46;;;;;;;2.95;2.00;;;;;;;-2.16;69.22;100013.38;5082426;28;20484;-70
2021/12/08 00:39:14;;;;;;;1.88;1.73;;;;;;;-2.17;69.54;100010.78;5083757;28;20487;-69
2021/12/08 00:41:40;;;;;;;1.67;1.20;;;;;;;-1.87;68.52;100003.38;5084122;28;20020;-70
2021/12/08 00:44:06;;;;;;;3.00;2.28;;;;;;;-2.17;69.48;100015.88;5082235;28;20020;-72
2021/12/08 00:46:32;;;;;;;1.52;1.08;;;;;;;-1.91;68.58;100004.09;5083649;28;20020;-70
2021/12/08 00:48:58;;;;;;;3.70;1.67;;;;;;;-1.85;68.13;100000.03;5083393;28;20024;-69
2021/12/08 00:51:23;;;;;;;2.88;2.08;;;;;;;-1.96;68.19;99992.00;5083190;28;20086;-70
2021/12/08 00:53:49;;;;;;;2.00;1.73;;;;;;;-1.88;68.04;100003.31;5083346;28;20048;-70
2021/12/08 00:56:14;;;;;;;4.70;1.73;;;;;;;-1.77;67.56;99999.50;5083382;28;20062;-70
2021/12/08 00:58:40;;;;;;;1.65;1.42;;;;;;;-2.03;68.54;99996.03;5083322;28;20032;-69
2021/12/08 01:01:09;;;;;;;2.65;2.15;;;;;;;-2.20;69.44;100000.47;5083301;28;20433;-69
2021/12/08 01:03:35;;;;;;;4.28;1.98;;;;;;;-2.04;68.92;99995.16;5083141;28;20074;-70
2021/12/08 01:06:04;;;;;;;5.05;2.47;;;;;;;-1.75;67.75;100002.97;5083189;28;20086;-68
2021/12/08 01:08:31;;;;;;;3.95;1.80;;;;;;;-1.91;67.94;99980.31;5083185;28;20310;-69
2021/12/08 01:11:00;;;;;;;1.77;1.52;;;;;;;-1.86;67.80;99994.09;5083475;28;20070;-71
2021/12/08 01:13:27;;;;;;;4.07;2.10;;;;;;;-2.11;68.59;99980.50;5083264;28;20116;-69
2021/12/08 01:15:58;;;;;;;1.48;1.38;;;;;;;-1.85;67.33;99989.88;5083536;28;20052;-71
2021/12/08 01:18:25;;;;;;;3.28;2.03;;;;;;;-1.62;66.78;99967.75;5083217;28;20033;-70
2021/12/08 01:20:51;;;;;;;2.92;2.03;;;;;;;-1.88;67.49;99980.44;5081985;28;20052;-69
2021/12/08 01:23:17;;;;;;;3.28;1.60;;;;;;;-1.79;67.01;99962.94;5083381;28;20036;-70
2021/12/08 01:25:43;;;;;;;3.47;1.88;;;;;;;-1.68;66.72;99983.69;5083442;28;20466;-71
2021/12/08 01:28:09;;;;;;;2.55;1.45;;;;;;;-1.92;67.29;99958.25;5083344;28;20029;-71
2021/12/08 01:30:38;;;;;;;3.45;2.65;;;;;;;-1.93;67.37;99967.53;5083246;28;20027;-71
2021/12/08 01:33:03;;;;;;;2.65;2.45;;;;;;;-1.92;67.49;99984.56;5083333;28;20035;-68
2021/12/08 01:35:30;;;;;;;1.90;1.65;;;;;;;-1.98;67.74;99974.13;5082781;28;20024;-70
2021/12/08 01:37:55;;;;;;;3.10;1.42;;;;;;;-2.16;68.33;99984.53;5082822;28;20181;-71
2021/12/08 01:40:21;;;;;;;4.07;2.25;;;;;;;-2.14;68.29;99970.22;5087466;28;20075;-70
2021/12/08 01:42:51;;;;;;;2.72;1.65;;;;;;;-1.93;67.83;99970.09;5087178;28;20033;-70
2021/12/08 01:48:10;;;;;;;3.42;1.80;;;;;;;-1.89;67.95;99974.50;5087520;28;20042;-69
2021/12/08 01:50:37;;;;;;;4.47;1.98;;;;;;;-1.82;67.36;99956.91;5086870;28;20025;-68
2021/12/08 01:53:05;;;;;;;3.75;1.58;;;;;;;-1.84;67.48;99945.78;5087188;28;20048;-69
2021/12/08 01:55:31;;;;;;;3.17;2.03;;;;;;;-1.80;67.36;99960.34;5087110;28;20499;-68
2021/12/08 01:57:56;;;;;;;3.22;1.90;;;;;;;-1.88;67.46;99972.78;5086906;28;20048;-69
2021/12/08 02:00:45;;;;;;;2.05;1.45;;;;;;;-1.87;67.25;99967.75;5085510;28;20309;-69
2021/12/08 02:03:10;;;;;;;3.67;1.80;;;;;;;-1.89;67.56;99948.16;5086928;28;20035;-68
2021/12/08 02:05:36;;;;;;;3.45;1.90;;;;;;;-1.75;67.27;99961.38;5085485;28;20032;-70
2021/12/08 02:08:03;;;;;;;2.05;1.50;;;;;;;-2.06;67.99;99981.50;5086879;28;20053;-69
2021/12/08 02:10:29;;;;;;;1.63;1.50;;;;;;;-2.16;69.09;99982.00;5086779;28;20021;-70
2021/12/08 02:12:54;;;;;;;1.95;1.65;;;;;;;-1.98;68.10;99968.22;5086819;28;20027;-70
2021/12/08 02:15:20;;;;;;;3.10;2.17;;;;;;;-2.16;69.00;99976.91;5086872;28;20036;-69
2021/12/08 02:17:49;;;;;;;3.83;2.03;;;;;;;-2.24;69.36;99967.31;5086998;28;20512;-69
2021/12/08 02:20:16;;;;;;;1.60;1.50;;;;;;;-2.05;69.19;99968.00;5086420;28;20029;-70
2021/12/08 02:22:41;;;;;;;3.38;1.70;;;;;;;-2.15;68.92;99958.28;5086343;28;20040;-69
2021/12/08 02:25:09;;;;;;;2.88;1.45;;;;;;;-2.04;69.15;99957.00;5086533;28;20024;-70
2021/12/08 02:27:35;;;;;;;4.53;2.78;;;;;;;-1.96;68.39;99951.28;5086496;28;20028;-70
2021/12/08 02:30:13;;;;;;;3.60;2.42;;;;;;;-2.09;69.12;99960.19;5086464;28;20028;-70
2021/12/08 02:46:42;;;;;;;5.93;2.17;;;;;;;-2.09;69.16;99943.22;5086192;28;20492;-70
2021/12/08 02:46:48;;;;;;;4.97;2.90;;;;;;;-2.19;69.64;99928.47;5086012;28;20028;-69
2021/12/08 02:49:16;;;;;;;3.42;2.35;;;;;;;-2.16;69.84;99934.53;5083184;28;20028;-70
2021/12/08 02:51:43;;;;;;;3.22;2.00;;;;;;;-1.85;69.30;99929.63;5085982;28;20070;-70
2021/12/08 02:54:08;;;;;;;2.22;1.65;;;;;;;-2.07;69.62;99915.31;5084645;28;20017;-70
2021/12/08 02:56:34;;;;;;;2.67;2.17;;;;;;;-2.34;70.79;99905.88;5085929;28;20043;-69
2021/12/08 02:59:01;;;;;;;5.65;2.47;;;;;;;-1.94;69.70;99914.06;5085912;28;20052;-69
2021/12/08 03:01:28;;;;;;;6.10;3.50;;;;;;;-2.08;69.94;99917.00;5085900;28;20016;-69
2021/12/08 03:03:53;;;;;;;2.42;1.70;;;;;;;-2.19;70.45;99898.78;5085634;28;20033;-68
2021/12/08 03:06:20;;;;;;;9.55;2.80;;;;;;;-2.12;69.92;99904.97;5085651;28;20056;-67
2021/12/08 03:08:46;;;;;;;2.38;2.05;;;;;;;-2.15;70.70;99904.88;5083995;28;20048;-68
2021/12/08 03:11:11;;;;;;;3.65;2.22;;;;;;;-1.96;70.06;99900.41;5085492;28;20059;-67
2021/12/08 03:13:41;;;;;;;4.35;3.05;;;;;;;-2.11;70.24;99891.47;5085520;28;20040;-67
2021/12/08 03:16:09;;;;;;;4.13;2.55;;;;;;;-2.23;70.96;99891.88;5085186;28;20027;-67
2021/12/08 03:18:36;;;;;;;5.97;3.65;;;;;;;-1.82;69.99;99878.00;5085352;28;20024;-68
2021/12/08 03:21:05;;;;;;;2.85;2.33;;;;;;;-2.22;70.81;99887.66;5085363;28;20452;-67
2021/12/08 03:23:47;;;;;;;3.95;2.17;;;;;;;-2.14;70.84;99876.09;5085520;28;20111;-68
2021/12/08 03:26:12;;;;;;;;;;;;;;;-2.12;71.01;99871.91;5086127;28;20422;-68
2021/12/08 03:28:45;;;;;;;5.60;2.60;;;;;;;-2.28;71.38;99866.28;5085177;28;20237;-67
2021/12/08 03:31:16;;;;;;;4.05;2.88;;;;;;;-2.29;71.75;99871.31;5085070;28;20029;-68
2021/12/08 03:33:43;;;;;;;4.22;2.47;;;;;;;-2.29;71.84;99878.94;5084955;28;20447;-67
2021/12/08 03:36:08;;;;;;;7.90;3.30;;;;;;;-2.24;71.66;99860.50;5085262;28;20139;-67
2021/12/08 03:38:35;;;;;;;5.97;2.95;;;;;;;-2.18;71.63;99866.59;5084938;28;20618;-67
2021/12/08 03:41:03;;;;;;;4.68;3.85;;;;;;;-2.21;71.63;99858.88;5084948;28;20027;-67
2021/12/08 03:43:29;;;;;;;6.15;3.47;;;;;;;-2.30;72.02;99857.72;5084946;28;20048;-68
2021/12/08 03:45:56;;;;;;;3.10;2.45;;;;;;;-2.10;71.46;99871.97;5085077;28;20029;-68
2021/12/08 03:48:31;;;;;;;3.72;2.15;;;;;;;-2.19;71.72;99862.34;5084885;28;20020;-68
2021/12/08 03:50:57;;;;;;;7.28;3.67;;;;;;;-2.29;72.12;99854.41;5084888;28;20028;-68
2021/12/08 03:53:24;;;;;;;4.30;2.53;;;;;;;-2.26;72.13;99843.47;5084581;28;20025;-68
2021/12/08 03:55:53;;;;;;;2.72;2.00;;;;;;;-2.06;71.62;99826.31;5084485;28;20020;-69
2021/12/08 03:58:19;;;;;;;6.03;3.25;;;;;;;-2.20;71.99;99823.31;5084525;28;20028;-67
2021/12/08 04:00:47;;;;;;;5.18;3.03;;;;;;;-2.28;72.31;99835.78;5084397;28;20029;-68
2021/12/08 04:03:13;;;;;;;4.10;3.17;;;;;;;-2.22;72.29;99837.66;5084373;28;20095;-68
2021/12/08 04:05:44;;;;;;;5.57;3.08;;;;;;;-2.09;71.71;99826.22;5084349;28;20024;-67
2021/12/08 04:08:16;;;;;;;5.78;2.08;;;;;;;-2.17;72.09;99827.66;5084181;28;20101;-69
2021/12/08 04:10:46;;;;;;;5.70;3.25;;;;;;;-2.16;72.23;99825.19;5084383;28;20036;-67
2021/12/08 04:13:12;;;;;;;4.45;2.70;;;;;;;-2.12;71.85;99804.09;5082808;28;20032;-68
2021/12/08 04:15:37;;;;;;;5.20;3.15;;;;;;;-2.03;71.72;99839.16;5084303;28;20028;-68
2021/12/08 04:18:03;;;;;;;5.22;2.92;;;;;;;-2.26;72.54;99841.78;5084115;28;20025;-68
2021/12/08 04:20:37;;;;;;;9.13;2.85;;;;;;;-1.99;71.78;99832.50;5084078;28;20026;-68
2021/12/08 04:23:04;;;;;;;4.25;2.38;;;;;;;-2.09;72.12;99810.13;5083978;28;20035;-69
2021/12/08 04:25:34;;;;;;;7.20;2.92;;;;;;;-2.15;72.04;99818.38;5084160;28;20020;-68
2021/12/08 04:28:05;;;;;;;3.92;3.03;;;;;;;-2.25;72.66;99840.09;5084163;28;20070;-67
2021/12/08 04:30:41;;;;;;;6.05;3.63;;;;;;;-2.22;72.86;99816.47;5083909;28;20043;-68
2021/12/08 04:33:08;;;;;;;2.55;1.92;;;;;;;-1.99;72.16;99824.84;5082531;28;20033;-67
2021/12/08 04:35:34;;;;;;;3.13;2.10;;;;;;;-2.14;72.39;99805.72;5083666;28;20415;-67
2021/12/08 04:38:04;;;;;;;4.03;2.75;;;;;;;-2.05;72.10;99809.38;5083762;28;20020;-69
2021/12/08 04:43:24;;;;;;;4.93;2.67;;;;;;;-1.87;71.32;99796.44;5083922;28;20088;-68
2021/12/08 04:46:06;;;;;;;4.95;3.78;;;;;;;-2.01;71.69;99799.38;5083932;28;20658;-68
2021/12/08 05:04:43;;;;;;;6.78;2.13;;;;;;;-1.80;69.80;99775.44;5083261;28;20101;-69
2021/12/08 05:07:48;;;;;;;5.93;2.50;;;;;;;-1.90;70.03;99760.69;5083381;28;20047;-69
2021/12/08 05:10:04;;;;;;;6.13;1.92;;;;;;;-2.08;70.43;99769.47;5082867;28;20044;-69
2021/12/08 05:12:34;;;;;;;3.33;2.15;;;;;;;-2.08;70.79;99756.75;5082909;28;20099;-69
2021/12/08 05:15:05;;;;;;;2.97;2.28;;;;;;;-1.97;69.96;99754.53;5083518;28;20048;-68
2021/12/08 05:17:47;;;;;;;4.28;2.20;;;;;;;-2.03;70.11;99777.25;5081930;28;20020;-68
2021/12/08 05:20:16;;;;;;;;;;;;;;;-1.92;69.87;99775.91;5082446;28;20021;-70
2021/12/08 05:22:47;;;;;;;3.88;2.08;;;;;;;-1.90;69.56;99768.34;5083181;28;19991;-69
2021/12/08 05:25:18;;;;;;;2.37;1.90;;;;;;;-1.99;69.61;99784.16;5083223;28;20129;-69
2021/12/08 05:27:47;;;;;;;4.05;2.25;;;;;;;-1.96;69.29;99778.28;5083298;28;20268;-68
2021/12/08 05:30:24;;;;;;;2.85;2.28;;;;;;;-1.60;68.38;99762.47;5083343;28;20059;-69
2021/12/08 05:32:50;;;;;;;3.33;2.25;;;;;;;-1.81;68.25;99763.53;5082860;28;20031;-69
2021/12/08 05:35:17;;;;;;;3.22;2.00;;;;;;;-1.92;68.72;99780.13;5083006;28;20029;-66
2021/12/08 05:37:42;;;;;;;2.15;1.48;;;;;;;-2.10;69.35;99766.00;5083044;28;20020;-70
2021/12/08 05:40:13;;;;;;;5.57;2.88;;;;;;;-1.89;68.55;99758.22;5083163;28;20055;-69
2021/12/08 05:42:39;;;;;;;2.42;1.88;;;;;;;-1.64;67.90;99758.09;5083006;28;20097;-70
2021/12/08 05:45:13;;;;;;;3.78;2.75;;;;;;;-1.88;68.43;99785.38;5083005;28;20024;-68
2021/12/08 05:47:39;;;;;;;7.88;2.58;;;;;;;-1.80;68.43;99780.53;5083236;28;20115;-69
2021/12/08 05:50:06;;;;;;;6.72;2.30;;;;;;;-1.85;68.48;99801.56;5082884;28;20029;-69
2021/12/08 05:52:32;;;;;;;4.15;1.80;;;;;;;-1.64;67.82;99792.06;5082989;28;20033;-70
2021/12/08 05:54:58;;;;;;;4.38;2.75;;;;;;;-1.75;68.01;99807.00;5083155;28;20026;-69
2021/12/08 05:57:29;;;;;;;4.47;1.98;;;;;;;-1.92;68.67;99795.41;5083033;28;20089;-70
2021/12/08 05:59:56;;;;;;;4.23;2.90;;;;;;;-1.91;68.86;99812.38;5083023;28;20051;-70
2021/12/08 06:02:26;;;;;;;2.53;1.92;;;;;;;-1.79;68.34;99792.41;5083126;28;20043;-70
2021/12/08 06:04:52;;;;;;;4.68;1.88;;;;;;;-1.72;68.53;99788.41;5082735;28;20140;-69
2021/12/08 06:07:21;;;;;;;2.53;1.77;;;;;;;-1.97;68.89;99787.63;5082981;28;20021;-70
2021/12/08 06:09:47;;;;;;;2.58;1.88;;;;;;;-1.81;68.58;99801.72;5082791;28;20061;-70
2021/12/08 06:12:13;;;;;;;2.85;1.75;;;;;;;-1.94;68.85;99772.44;5082901;28;20176;-70
2021/12/08 06:14:40;;;;;;;1.35;1.25;;;;;;;-1.46;66.78;99792.56;5082728;28;20036;-69
2021/12/08 06:17:10;;;;;;;4.47;2.58;;;;;;;-1.89;68.33;99778.56;5082795;28;20487;-69
2021/12/08 06:19:40;;;;;;;3.45;2.38;;;;;;;-1.96;68.80;99794.44;5082704;28;20030;-68
2021/12/08 06:22:08;;;;;;;4.32;2.17;;;;;;;-1.86;68.15;99793.06;5082665;28;20032;-68
2021/12/08 06:24:33;;;;;;;2.42;2.00;;;;;;;-1.87;68.37;99788.78;5084545;28;20023;-68
2021/12/08 06:26:59;;;;;;;3.22;2.10;;;;;;;-1.99;68.92;99771.44;5084921;28;20052;-69
2021/12/08 06:29:25;;;;;;;5.05;2.60;;;;;;;-1.82;68.67;99766.03;5086021;28;20029;-69
2021/12/08 06:31:55;;;;;;;4.13;2.33;;;;;;;-1.81;68.16;99776.25;5084784;28;20016;-69
2021/12/08 06:34:22;;;;;;;4.97;2.95;;;;;;;-1.97;68.79;99774.91;5084514;28;20021;-69
2021/12/08 06:37:00;;;;;;;7.15;2.67;;;;;;;-2.02;69.07;99779.84;5086184;28;20048;-68
2021/12/08 06:39:30;;;;;;;3.30;2.15;;;;;;;-1.78;68.69;99789.09;5085084;28;20111;-69
2021/12/08 06:42:03;;;;;;;3.03;1.73;;;;;;;-1.70;68.40;99780.81;5086269;28;20055;-69
2021/12/08 06:44:32;;;;;;;7.22;3.22;;;;;;;-1.90;68.63;99778.50;5084704;28;20025;-69
2021/12/08 06:46:59;;;;;;;3.08;1.73;;;;;;;-2.01;69.58;99776.47;5085963;28;20134;-70
2021/12/08 06:49:26;;;;;;;5.43;2.78;;;;;;;-2.01;69.72;99781.56;5084350;28;20033;-69
2021/12/08 06:51:56;;;;;;;6.78;3.15;;;;;;;-1.96;69.58;99775.75;5086831;28;20416;-69
2021/12/08 06:54:30;;;;;;;4.72;3.20;;;;;;;-2.04;69.94;99794.19;5084833;28;20278;-68
2021/12/08 06:57:02;;;;;;;3.50;2.60;;;;;;;-2.02;70.29;99807.81;5085903;28;20099;-68
2021/12/08 06:59:34;;;;;;;3.17;2.10;;;;;;;-1.67;69.20;99796.19;5086189;28;20021;-69
2021/12/08 07:02:08;;;;;;;7.72;3.05;;;;;;;-1.90;69.83;99809.06;5085973;28;20028;-69
2021/12/08 07:04:52;;;;;;;4.55;2.75;;;;;;;-1.78;69.52;99790.75;5084307;28;20024;-69
2021/12/08 07:07:21;;;;;;;4.55;2.70;;;;;;;-1.63;69.08;99806.50;5085988;28;20020;-70
2021/12/08 07:09:56;;;;;;;4.85;3.03;;;;;;;-1.63;69.05;99809.03;5085600;28;20041;-69
2021/12/08 07:12:30;;;;;;;5.28;3.63;;;;;;;-1.93;70.24;99794.53;5085676;28;20025;-68
2021/12/08 07:15:21;;;;;;;7.10;3.17;;;;;;;-1.89;70.11;99790.41;5084227;28;20021;-69
2021/12/08 07:17:50;;;;;;;3.28;2.25;;;;;;;-1.86;70.47;99790.50;5085993;28;20024;-68
2021/12/08 07:20:40;;;;;;;6.15;4.03;;;;;;;-1.84;69.87;99788.88;5085472;28;20027;-69
2021/12/08 07:23:06;;;;;;;4.57;3.20;;;;;;;-1.76;69.80;99763.69;5085621;28;20028;-69
2021/12/08 07:25:35;;;;;;;8.80;3.40;;;;;;;-1.71;70.06;99766.38;5085733;28;20043;-69
2021/12/08 07:28:02;;;;;;;3.33;2.20;;;;;;;-1.77;70.57;99767.91;5085148;28;20476;-68
2021/12/08 07:30:38;;;;;;;5.80;3.83;;;;;;;-1.84;70.77;99772.75;5085283;28;20460;-68
2021/12/08 07:33:04;;;;;;;7.53;4.25;;;;;;;-1.82;70.97;99792.31;5085207;28;20029;-68
2021/12/08 07:35:36;;;;;;;6.18;3.35;;;;;;;-1.91;71.37;99752.19;5084374;28;20029;-70
2021/12/08 07:38:05;;;;;;;3.97;2.70;;;;;;;-1.59;70.23;99753.13;5083770;28;20061;-69
2021/12/08 07:40:44;;;;;;;7.85;3.17;;;;;;;-1.79;71.13;99749.16;5085125;28;20020;-68
2021/12/08 07:43:14;;;;;;;5.50;2.88;;;;;;;-1.60;70.66;99752.28;5085152;28;20017;-70
2021/12/08 07:45:47;;;;;;;5.10;3.10;;;;;;;-1.65;71.29;99756.38;5084914;28;20028;-69
2021/12/08 07:48:20;;;;;;;10.93;3.75;;;;;;;-1.46;70.30;99765.44;5085108;28;20031;-69
2021/12/08 07:50:53;;;;;;;5.85;3.67;;;;;;;-1.79;71.47;99751.69;5084622;28;20024;-69
2021/12/08 07:53:22;;;;;;;8.25;4.35;;;;;;;-1.78;71.70;99742.41;5084846;28;20093;-69
2021/12/08 07:55:51;;;;;;;4.18;3.55;;;;;;;-1.53;71.28;99717.69;5084691;28;20024;-69
2021/12/08 07:58:19;;;;;;;5.68;3.75;;;;;;;-1.66;71.37;99721.56;5084838;28;20024;-71
2021/12/08 08:00:47;;;;;;;6.65;4.03;;;;;;;-1.67;71.40;99770.72;5083504;28;20020;-69
2021/12/08 08:03:14;;;;;;;10.25;4.70;;;;;;;-1.53;70.91;99751.66;5084584;28;20024;-69
2021/12/08 08:05:44;;;;;;;4.82;2.75;;;;;;;-1.65;72.08;99751.28;5084511;28;20026;-70
2021/12/08 08:08:13;;;;;;;6.75;3.78;;;;;;;-1.54;71.90;99752.47;5084364;28;20055;-70
2021/12/08 08:10:44;;;;;;;12.02;3.85;;;;;;;-1.54;71.43;99761.78;5084430;28;20126;-69
2021/12/08 08:13:12;;;;;;;10.27;4.35;;;;;;;-1.82;72.72;99750.75;5084107;28;20024;-68
2021/12/08 08:15:44;;;;;;;10.52;4.22;;;;;;;-1.26;71.49;99755.84;5084537;28;20360;-69
2021/12/08 08:18:12;;;;;;;12.25;4.97;;;;;;;-1.47;71.43;99765.38;5082950;28;20020;-69
2021/12/08 08:20:47;;;;;;;7.25;4.00;;;;;;;-1.62;72.45;99759.00;5084117;28;20112;-69
2021/12/08 08:23:15;;;;;;;9.32;5.22;;;;;;;-1.69;72.02;99736.75;5084220;28;20024;-68
2021/12/08 08:25:44;;;;;;;10.45;4.90;;;;;;;-1.69;72.84;99773.22;5082866;28;20020;-69
2021/12/08 08:28:10;;;;;;;10.20;5.82;;;;;;;-1.66;72.62;99741.94;5084259;28;20026;-68
2021/12/08 08:30:44;;;;;;;7.72;4.50;;;;;;;-1.65;73.17;99753.81;5084192;28;20052;-70
2021/12/08 08:33:12;;;;;;;4.22;3.20;;;;;;;-1.50;73.06;99754.28;5084040;28;20025;-69
2021/12/08 08:35:45;;;;;;;6.60;3.60;;;;;;;-1.32;72.25;99757.31;5083819;28;20039;-70
2021/12/08 08:38:16;;;;;;;9.13;4.78;;;;;;;-1.63;73.32;99747.13;5082671;28;20115;-69
2021/12/08 08:40:46;;;;;;;7.75;4.88;;;;;;;-1.61;73.31;99763.28;5083837;28;20028;-68
2021/12/08 08:43:13;;;;;;;9.13;5.78;;;;;;;-1.61;73.34;99770.91;5083918;28;20084;-68
2021/12/08 08:46:04;;;;;;;11.02;6.38;;;;;;;-1.63;73.72;99787.84;5083674;28;20097;-70
2021/12/08 08:48:39;;;;;;;10.93;6.63;;;;;;;-1.54;73.33;99770.31;5082586;28;20050;-69
2021/12/08 08:51:19;;;;;;;11.85;5.15;;;;;;;-1.44;73.54;99763.81;5082227;28;20469;-70
2021/12/08 08:53:49;;;;;;;9.18;6.20;;;;;;;-1.36;73.57;99774.22;5083551;28;20034;-71
2021/12/08 08:56:23;;;;;;;11.90;5.15;;;;;;;-1.47;73.75;99766.22;5083843;28;20113;-71
2021/12/08 08:58:54;;;;;;;10.05;5.30;;;;;;;-1.37;73.92;99755.53;5083807;28;20437;-72
2021/12/08 09:01:27;;;;;;;8.07;4.43;;;;;;;-1.17;72.89;99742.50;5082311;28;20082;-73
2021/12/08 09:03:58;;;;;;;10.50;5.38;;;;;;;-1.55;74.04;99766.00;5083460;28;20048;-71
2021/12/08 09:06:31;;;;;;;16.95;7.00;;;;;;;-1.40;73.53;99769.84;5082322;28;20043;-70
2021/12/08 09:09:01;;;;;;;10.25;5.65;;;;;;;-1.19;73.06;99753.47;5083395;28;20059;-70
2021/12/08 09:11:31;;;;;;;10.18;4.65;;;;;;;-1.22;73.52;99761.00;5083526;28;20021;-71
2021/12/08 09:14:09;;;;;;;14.35;8.23;;;;;;;-1.50;74.31;99767.00;5083423;28;20029;-70
2021/12/08 09:16:48;;;;;;;9.23;5.60;;;;;;;-1.29;74.28;99772.69;5083471;28;20039;-70
2021/12/08 09:19:19;;;;;;;15.20;6.00;;;;;;;-1.19;73.68;99756.00;5083301;28;20020;-69
2021/12/08 09:21:49;;;;;;;12.95;7.07;;;;;;;-1.23;73.93;99761.84;5083559;28;20021;-68
2021/12/08 09:24:48;;;;;;;7.90;4.88;;;;;;;-1.38;74.41;99764.00;5083298;28;20020;-69
2021/12/08 09:27:20;;;;;;;13.57;7.85;;;;;;;-1.38;74.45;99741.06;5083310;28;20031;-69
2021/12/08 09:29:54;;;;;;;12.52;7.25;;;;;;;-1.28;74.46;99744.72;5083375;28;20048;-69
2021/12/08 09:32:34;;;;;;;9.30;5.07;;;;;;;-1.19;74.38;99768.75;5083280;28;20028;-70
2021/12/08 09:35:22;;;;;;;11.18;6.00;;;;;;;-1.13;73.99;99756.19;5083095;28;20032;-71
2021/12/08 09:37:53;;;;;;;12.18;6.57;;;;;;;-0.86;73.30;99756.94;5082932;28;20040;-71
2021/12/08 09:40:37;;;;;;;17.08;7.57;;;;;;;-1.22;74.82;99751.69;5083287;28;20025;-68
2021/12/08 09:43:12;;;;;;;10.27;5.50;;;;;;;-1.07;73.98;99723.22;5083350;28;20021;-71
2021/12/08 09:45:51;;;;;;;15.15;6.70;;;;;;;-1.14;74.39;99767.22;5081925;28;20047;-71
2021/12/08 09:48:16;;;;;;;10.75;6.38;;;;;;;-1.18;74.63;99752.66;5083183;28;20095;-70
2021/12/08 09:50:43;;;;;;;12.02;5.47;;;;;;;-0.88;73.87;99750.09;5082977;28;20020;-70
2021/12/08 09:53:09;;;;;;;10.32;4.72;;;;;;;-1.06;74.36;99745.38;5083112;28;20430;-70
2021/12/08 09:55:35;;;;;;;16.67;7.85;;;;;;;-1.13;74.63;99762.16;5083013;28;20071;-69
2021/12/08 09:58:03;;;;;;;12.00;6.85;;;;;;;-1.28;75.30;99741.34;5082957;28;20020;-68
2021/12/08 10:00:33;;;;;;;10.57;6.18;;;;;;;-1.09;74.93;99746.94;5085168;28;20080;-70
2021/12/08 10:03:00;;;;;;;6.75;4.07;;;;;;;-1.08;75.36;99741.03;5086921;28;20039;-70
2021/12/08 10:05:32;;;;;;;7.85;5.10;;;;;;;-0.90;74.44;99748.34;5086741;28;20040;-70
2021/12/08 10:07:58;;;;;;;;;;;;;;;-0.79;73.93;99749.50;5087260;28;20044;-70
2021/12/08 10:10:25;;;;;;;18.17;8.07;;;;;;;-0.96;74.35;99735.44;5086963;28;19937;-69
2021/12/08 10:12:50;;;;;;;12.35;6.05;;;;;;;-0.92;74.78;99743.19;5086768;28;20070;-71
2021/12/08 10:15:19;;;;;;;10.38;6.38;;;;;;;-0.73;73.93;99720.75;5086660;28;20016;-70
2021/12/08 10:17:46;;;;;;;11.85;6.28;;;;;;;-1.05;74.98;99726.69;5086691;28;20091;-70
2021/12/08 10:20:20;;;;;;;15.63;7.40;;;;;;;-1.00;75.01;99712.41;5086352;28;20092;-69
2021/12/08 10:23:07;;;;;;;15.13;7.90;;;;;;;-0.97;75.06;99741.31;5085249;28;20032;-69
2021/12/08 10:25:36;;;;;;;10.60;5.57;;;;;;;-0.97;74.59;99692.91;5086404;28;20056;-70
2021/12/08 10:28:14;;;;;;;16.65;7.80;;;;;;;-1.01;74.57;99686.88;5085099;28;20029;-69
2021/12/08 10:30:48;;;;;;;11.73;6.43;;;;;;;-0.86;74.41;99693.22;5086446;28;20046;-70
2021/12/08 10:34:04;;;;;;;8.52;4.78;;;;;;;-0.87;74.60;99700.00;5084984;28;20396;-69
2021/12/08 10:36:53;;;;;;;12.63;7.03;;;;;;;-0.63;73.99;99691.25;5085083;28;20008;-70
2021/12/08 10:39:37;;;;;;;12.15;6.95;;;;;;;-0.89;74.66;99668.50;5086245;28;20074;-70
2021/12/08 10:42:09;;;;;;;13.68;7.00;;;;;;;-0.69;73.98;99673.25;5086294;28;20047;-70
2021/12/08 10:44:52;;;;;;;10.65;6.20;;;;;;;-0.70;74.11;99671.56;5084972;28;20531;-71
2021/12/08 10:47:24;;;;;;;12.85;7.22;;;;;;;-0.51;73.94;99652.44;5086244;28;20463;-71
2021/12/08 10:55:06;;;;;;;16.80;8.13;;;;;;;-0.88;74.92;99671.09;5085902;28;20163;-68
2021/12/08 10:57:34;;;;;;;16.38;8.90;;;;;;;-0.83;75.15;99670.38;5085894;28;20056;-67
2021/12/08 11:00:18;;;;;;;14.40;7.22;;;;;;;-0.57;74.03;99671.03;5084629;28;20016;-68
2021/12/08 11:02:46;;;;;;;14.77;7.75;;;;;;;-0.61;74.21;99669.22;5086010;28;20029;-69
2021/12/08 11:05:37;;;;;;;6.90;4.53;;;;;;;-0.57;73.80;99642.97;5085713;28;20020;-69
2021/12/08 11:08:14;;;;;;;11.32;5.88;;;;;;;-0.51;73.54;99648.22;5074630;28;20052;-70
2021/12/08 11:11:02;;;;;;;11.80;5.57;;;;;;;-0.43;73.27;99656.06;5084738;28;20445;-70
2021/12/08 11:13:35;;;;;;;10.05;5.32;;;;;;;-0.43;73.47;99635.66;5075599;28;20351;-70
2021/12/08 11:16:05;;;;;;;9.15;6.03;;;;;;;-0.55;74.00;99641.34;5085586;28;20111;-70
2021/12/08 11:18:32;;;;;;;12.73;6.97;;;;;;;-0.26;72.99;99630.94;5085531;28;20035;-71
2021/12/08 11:21:06;;;;;;;14.75;7.88;;;;;;;-0.51;73.50;99617.63;5083974;28;20032;-70
2021/12/08 11:23:42;;;;;;;11.10;6.05;;;;;;;-0.48;73.97;99631.28;5084336;28;20025;-70
2021/12/08 11:26:19;;;;;;;14.43;6.05;;;;;;;-0.06;72.23;99614.34;5084455;28;20016;-69
2021/12/08 11:28:51;;;;;;;13.57;8.05;;;;;;;-0.44;73.06;99625.41;5085469;28;20024;-69
2021/12/08 11:31:18;;;;;;;14.05;7.65;;;;;;;0.11;71.59;99613.03;5084074;28;20044;-69
2021/12/08 11:33:51;;;;;;;9.35;6.25;;;;;;;-0.13;72.50;99636.34;5085400;28;20039;-69
2021/12/08 11:36:19;;;;;;;13.68;8.13;;;;;;;-0.44;73.30;99636.50;5085378;28;20089;-68
2021/12/08 11:38:47;;;;;;;13.50;7.03;;;;;;;-0.37;73.36;99629.84;5085673;28;20024;-68
2021/12/08 11:41:27;;;;;;;12.30;6.28;;;;;;;-0.32;73.29;99628.25;5085617;28;20321;-68
2021/12/08 11:43:57;;;;;;;10.35;6.35;;;;;;;0.03;71.90;99614.59;5084022;28;20028;-72
2021/12/08 11:46:23;;;;;;;7.68;4.28;;;;;;;-0.25;72.67;99624.16;5085262;28;20035;-70
2021/12/08 11:49:08;;;;;;;12.23;7.05;;;;;;;-0.29;73.14;99627.47;5085176;28;20066;-69
2021/12/08 11:52:16;;;;;;;10.80;6.57;;;;;;;-0.07;72.36;99613.53;5083753;28;20020;-72
2021/12/08 11:54:41;;;;;;;17.48;8.30;;;;;;;-0.17;72.31;99632.84;5082566;28;20056;-69
2021/12/08 11:57:10;;;;;;;18.25;7.93;;;;;;;-0.31;73.00;99631.66;5085055;28;20027;-69
2021/12/08 11:59:48;;;;;;;8.88;5.25;;;;;;;-0.27;73.20;99623.25;5083215;28;20551;-70
2021/12/08 12:02:14;;;;;;;11.55;5.95;;;;;;;-0.18;72.84;99640.47;5084983;28;20024;-69
2021/12/08 12:04:42;;;;;;;13.88;6.53;;;;;;;-0.18;72.54;99635.38;5084627;28;20086;-70
2021/12/08 12:07:12;;;;;;;9.02;4.85;;;;;;;-0.07;72.47;99631.38;5084609;28;20028;-70
2021/12/08 12:09:39;;;;;;;19.73;8.18;;;;;;;-0.02;71.99;99611.91;5083173;28;20051;-71
2021/12/08 12:12:05;;;;;;;13.75;5.90;;;;;;;-0.22;72.73;99636.16;5084552;28;20033;-70
2021/12/08 12:14:34;;;;;;;13.73;7.03;;;;;;;-0.35;73.36;99620.53;5084411;28;20027;-71
2021/12/08 12:17:00;;;;;;;10.05;5.93;;;;;;;-0.11;72.64;99624.47;5083232;28;20021;-73
2021/12/08 12:19:30;;;;;;;9.20;4.65;;;;;;;0.06;71.83;99631.66;5084534;28;20032;-69
2021/12/08 12:22:21;;;;;;;17.83;8.25;;;;;;;-0.09;72.71;99629.59;5084309;28;20032;-69
2021/12/08 12:24:53;;;;;;;7.17;4.93;;;;;;;-0.13;73.09;99629.53;5081285;28;20266;-71
2021/12/08 12:27:43;;;;;;;10.95;6.03;;;;;;;-0.04;72.62;99622.91;5084505;28;20257;-70
2021/12/08 12:30:26;;;;;;;12.45;7.45;;;;;;;-0.02;72.58;99637.44;5084410;28;20050;-71
2021/12/08 12:32:53;;;;;;;7.45;4.93;;;;;;;-0.01;72.28;99618.75;5083053;28;20063;-71